createdAt,value
2018-07-02T00:00:33.686Z,1020.77
2018-07-02T00:01:42.547Z,1020.75
2018-07-02T00:02:51.559Z,1020.71
2018-07-02T00:04:00.729Z,1020.73
2018-07-02T00:05:09.591Z,1020.65
2018-07-02T00:06:18.459Z,1020.65
2018-07-02T00:07:27.401Z,1020.65
2018-07-02T00:08:36.417Z,1020.68
2018-07-02T00:09:45.281Z,1020.67
2018-07-02T00:10:54.145Z,1020.68
2018-07-02T00:12:03.313Z,1020.65
2018-07-02T00:13:12.177Z,1020.7
2018-07-02T00:14:21.090Z,1020.66
2018-07-02T00:15:29.956Z,1020.63
2018-07-02T00:16:38.823Z,1020.71
2018-07-02T00:17:47.685Z,1020.71
2018-07-02T00:18:56.543Z,1020.73
2018-07-02T00:20:05.763Z,1020.79
2018-07-02T00:21:14.621Z,1020.76
2018-07-02T00:22:23.481Z,1020.77
2018-07-02T00:23:32.345Z,1020.76
2018-07-02T00:24:41.206Z,1020.72
2018-07-02T00:25:50.224Z,1020.68
2018-07-02T00:26:59.490Z,1020.66
2018-07-02T00:28:08.350Z,1020.68
2018-07-02T00:29:17.213Z,1020.69
2018-07-02T00:30:26.075Z,1020.7
2018-07-02T00:31:34.992Z,1020.67
2018-07-02T00:32:44.234Z,1020.68
2018-07-02T00:33:53.996Z,1020.61
2018-07-02T00:35:04.033Z,1020.59
2018-07-02T00:36:13.200Z,1020.62
2018-07-02T00:37:22.309Z,1020.58
2018-07-02T00:38:31.172Z,1020.57
2018-07-02T00:39:40.040Z,1020.62
2018-07-02T00:40:49.202Z,1020.61
2018-07-02T00:41:58.061Z,1020.67
2018-07-02T00:43:06.977Z,1020.65
2018-07-02T00:44:15.838Z,1020.63
2018-07-02T00:45:24.700Z,1020.66
2018-07-02T00:46:33.566Z,1020.63
2018-07-02T00:47:43.038Z,1020.59
2018-07-02T00:48:52.452Z,1020.57
2018-07-02T00:50:01.960Z,1020.62
2018-07-02T00:51:11.441Z,1020.62
2018-07-02T00:52:20.302Z,1020.56
2018-07-02T00:53:29.164Z,1020.58
2018-07-02T00:54:38.174Z,1020.6
2018-07-02T00:55:47.033Z,1020.64
2018-07-02T00:56:55.893Z,1020.61
2018-07-02T00:58:05.388Z,1020.6
2018-07-02T00:59:14.251Z,1020.54
2018-07-02T01:00:23.164Z,1020.59
2018-07-02T01:01:32.842Z,1020.59
2018-07-02T01:02:42.302Z,1020.56
2018-07-02T01:03:51.165Z,1020.59
2018-07-02T01:05:00.029Z,1020.57
2018-07-02T01:06:09.344Z,1020.58
2018-07-02T01:07:18.205Z,1020.53
2018-07-02T01:08:27.066Z,1020.51
2018-07-02T01:09:36.225Z,1020.53
2018-07-02T01:10:45.416Z,1020.46
2018-07-02T01:11:54.480Z,1020.43
2018-07-02T01:13:03.341Z,1020.4
2018-07-02T01:14:13.648Z,1020.41
2018-07-02T01:15:22.511Z,1020.41
2018-07-02T01:16:31.375Z,1020.41
2018-07-02T01:17:40.865Z,1020.47
2018-07-02T01:18:49.733Z,1020.47
2018-07-02T01:19:58.592Z,1020.5
2018-07-02T01:21:07.452Z,1020.52
2018-07-02T01:22:16.311Z,1020.53
2018-07-02T01:23:25.423Z,1020.5
2018-07-02T01:24:34.285Z,1020.51
2018-07-02T01:25:43.147Z,1020.54
2018-07-02T01:26:52.009Z,1020.52
2018-07-02T01:28:00.870Z,1020.43
2018-07-02T01:29:09.729Z,1020.47
2018-07-02T01:30:18.592Z,1020.44
2018-07-02T01:31:27.771Z,1020.47
2018-07-02T01:32:37.251Z,1020.47
2018-07-02T01:33:46.112Z,1020.45
2018-07-02T01:34:55.023Z,1020.47
2018-07-02T01:36:03.885Z,1020.45
2018-07-02T01:37:12.747Z,1020.44
2018-07-02T01:38:21.608Z,1020.38
2018-07-02T01:39:30.471Z,1020.37
2018-07-02T01:40:39.679Z,1020.4
2018-07-02T01:41:48.544Z,1020.37
2018-07-02T01:42:57.407Z,1020.35
2018-07-02T01:44:06.265Z,1020.36
2018-07-02T01:45:15.127Z,1020.4
2018-07-02T01:46:25.410Z,1020.41
2018-07-02T01:47:34.272Z,1020.45
2018-07-02T01:48:43.131Z,1020.41
2018-07-02T01:49:51.991Z,1020.4
2018-07-02T01:51:00.852Z,1020.39
2018-07-02T01:52:10.015Z,1020.39
2018-07-02T01:53:18.880Z,1020.33
2018-07-02T01:54:27.745Z,1020.34
2018-07-02T01:55:36.604Z,1020.29
2018-07-02T01:56:46.382Z,1020.33
2018-07-02T01:57:55.344Z,1020.32
2018-07-02T01:59:04.205Z,1020.34
2018-07-02T02:00:13.067Z,1020.3
2018-07-02T02:01:21.927Z,1020.27
2018-07-02T02:02:30.788Z,1020.31
2018-07-02T02:03:39.700Z,1020.3
2018-07-02T02:04:48.560Z,1020.35
2018-07-02T02:05:57.420Z,1020.33
2018-07-02T02:07:06.282Z,1020.35
2018-07-02T02:08:15.141Z,1020.32
2018-07-02T02:09:24.052Z,1020.35
2018-07-02T02:10:32.914Z,1020.39
2018-07-02T02:11:41.776Z,1020.39
2018-07-02T02:12:50.637Z,1020.38
2018-07-02T02:14:00.174Z,1020.4
2018-07-02T02:15:10.093Z,1020.38
2018-07-02T02:16:19.257Z,1020.35
2018-07-02T02:17:28.120Z,1020.31
2018-07-02T02:18:37.290Z,1020.27
2018-07-02T02:19:46.150Z,1020.32
2018-07-02T02:20:55.310Z,1020.26
2018-07-02T02:22:04.172Z,1020.29
2018-07-02T02:23:13.034Z,1020.31
2018-07-02T02:24:21.895Z,1020.27
2018-07-02T02:25:30.754Z,1020.27
2018-07-02T02:26:39.668Z,1020.28
2018-07-02T02:27:48.523Z,1020.28
2018-07-02T02:28:57.677Z,1020.25
2018-07-02T02:30:06.540Z,1020.25
2018-07-02T02:31:15.721Z,1020.21
2018-07-02T02:32:24.683Z,1020.21
2018-07-02T02:33:33.548Z,1020.23
2018-07-02T02:34:43.008Z,1020.23
2018-07-02T02:35:51.873Z,1020.25
2018-07-02T02:37:01.636Z,1020.23
2018-07-02T02:38:10.852Z,1020.22
2018-07-02T02:39:19.715Z,1020.22
2018-07-02T02:40:29.167Z,1020.24
2018-07-02T02:41:38.865Z,1020.23
2018-07-02T02:42:48.017Z,1020.26
2018-07-02T02:43:57.286Z,1020.22
2018-07-02T02:45:06.457Z,1020.19
2018-07-02T02:46:15.655Z,1020.21
2018-07-02T02:47:25.137Z,1020.17
2018-07-02T02:48:34.878Z,1020.2
2018-07-02T02:49:44.207Z,1020.18
2018-07-02T02:50:54.485Z,1020.2
2018-07-02T02:52:03.355Z,1020.18
2018-07-02T02:53:12.220Z,1020.19
2018-07-02T02:54:21.368Z,1020.24
2018-07-02T02:55:30.525Z,1020.22
2018-07-02T02:56:39.680Z,1020.23
2018-07-02T02:57:48.542Z,1020.24
2018-07-02T02:58:57.401Z,1020.24
2018-07-02T03:00:06.939Z,1020.26
2018-07-02T03:01:16.144Z,1020.29
2018-07-02T03:02:25.297Z,1020.29
2018-07-02T03:03:34.159Z,1020.27
2018-07-02T03:04:43.021Z,1020.33
2018-07-02T03:05:52.468Z,1020.35
2018-07-02T03:07:01.794Z,1020.33
2018-07-02T03:08:10.956Z,1020.38
2018-07-02T03:09:20.517Z,1020.35
2018-07-02T03:10:31.156Z,1020.35
2018-07-02T03:11:40.330Z,1020.37
2018-07-02T03:12:49.238Z,1020.38
2018-07-02T03:13:58.100Z,1020.36
2018-07-02T03:15:06.960Z,1020.38
2018-07-02T03:16:16.127Z,1020.36
2018-07-02T03:17:25.583Z,1020.36
2018-07-02T03:18:34.496Z,1020.37
2018-07-02T03:19:43.358Z,1020.39
2018-07-02T03:20:52.218Z,1020.4
2018-07-02T03:22:01.380Z,1020.42
2018-07-02T03:23:10.243Z,1020.45
2018-07-02T03:24:19.218Z,1020.43
2018-07-02T03:25:28.076Z,1020.43
2018-07-02T03:26:37.524Z,1020.44
2018-07-02T03:27:47.230Z,1020.43
2018-07-02T03:28:56.777Z,1020.5
2018-07-02T03:30:05.693Z,1020.51
2018-07-02T03:31:15.166Z,1020.53
2018-07-02T03:32:24.343Z,1020.48
2018-07-02T03:33:33.205Z,1020.55
2018-07-02T03:34:42.065Z,1020.51
2018-07-02T03:35:51.077Z,1020.6
2018-07-02T03:36:59.936Z,1020.57
2018-07-02T03:38:08.796Z,1020.59
2018-07-02T03:39:17.660Z,1020.62
2018-07-02T03:40:26.833Z,1020.58
2018-07-02T03:41:35.792Z,1020.64
2018-07-02T03:42:44.943Z,1020.63
2018-07-02T03:43:54.883Z,1020.69
2018-07-02T03:45:03.741Z,1020.65
2018-07-02T03:46:12.603Z,1020.7
2018-07-02T03:47:21.877Z,1020.7
2018-07-02T03:48:30.742Z,1020.73
2018-07-02T03:49:40.212Z,1020.73
2018-07-02T03:50:49.681Z,1020.68
2018-07-02T03:51:58.890Z,1020.66
2018-07-02T03:53:08.744Z,1020.67
2018-07-02T03:54:17.605Z,1020.63
2018-07-02T03:55:26.774Z,1020.64
2018-07-02T03:56:35.636Z,1020.67
2018-07-02T03:57:44.494Z,1020.66
2018-07-02T03:58:53.506Z,1020.63
2018-07-02T04:00:02.369Z,1020.62
2018-07-02T04:01:11.280Z,1020.62
2018-07-02T04:02:20.088Z,1020.59
2018-07-02T04:03:29.245Z,1020.62
2018-07-02T04:04:38.254Z,1020.61
2018-07-02T04:05:47.117Z,1020.6
2018-07-02T04:06:56.272Z,1020.6
2018-07-02T04:08:05.450Z,1020.58
2018-07-02T04:09:15.062Z,1020.64
2018-07-02T04:10:24.020Z,1020.62
2018-07-02T04:11:32.886Z,1020.63
2018-07-02T04:12:42.065Z,1020.64
2018-07-02T04:13:50.924Z,1020.66
2018-07-02T04:14:59.782Z,1020.69
2018-07-02T04:16:08.794Z,1020.69
2018-07-02T04:17:17.655Z,1020.68
2018-07-02T04:18:26.515Z,1020.72
2018-07-02T04:19:35.375Z,1020.74
2018-07-02T04:20:44.233Z,1020.75
2018-07-02T04:21:53.527Z,1020.71
2018-07-02T04:23:02.738Z,1020.7
2018-07-02T04:24:11.600Z,1020.68
2018-07-02T04:25:20.770Z,1020.65
2018-07-02T04:26:29.629Z,1020.59
2018-07-02T04:27:38.489Z,1020.6
2018-07-02T04:28:47.346Z,1020.63
2018-07-02T04:29:56.208Z,1020.64
2018-07-02T04:31:05.066Z,1020.62
2018-07-02T04:32:13.926Z,1020.66
2018-07-02T04:33:22.836Z,1020.67
2018-07-02T04:34:31.697Z,1020.65
2018-07-02T04:35:40.558Z,1020.64
2018-07-02T04:36:49.706Z,1020.69
2018-07-02T04:37:58.566Z,1020.71
2018-07-02T04:39:07.579Z,1020.67
2018-07-02T04:40:16.439Z,1020.67
2018-07-02T04:41:25.919Z,1020.67
2018-07-02T04:42:34.783Z,1020.68
2018-07-02T04:43:43.642Z,1020.68
2018-07-02T04:44:52.951Z,1020.61
2018-07-02T04:46:02.544Z,1020.56
2018-07-02T04:47:11.404Z,1020.6
2018-07-02T04:48:20.268Z,1020.55
2018-07-02T04:49:29.124Z,1020.57
2018-07-02T04:50:38.036Z,1020.54
2018-07-02T04:51:46.896Z,1020.57
2018-07-02T04:52:55.757Z,1020.61
2018-07-02T04:54:04.619Z,1020.64
2018-07-02T04:55:13.477Z,1020.66
2018-07-02T04:56:23.337Z,1020.63
2018-07-02T04:57:32.223Z,1020.65
2018-07-02T04:58:41.108Z,1020.65
2018-07-02T04:59:50.793Z,1020.65
2018-07-02T05:00:59.650Z,1020.68
2018-07-02T05:02:09.141Z,1020.68
2018-07-02T05:03:18.001Z,1020.67
2018-07-02T05:04:26.856Z,1020.62
2018-07-02T05:05:35.991Z,1020.61
2018-07-02T05:06:44.851Z,1020.62
2018-07-02T05:07:54.146Z,1020.65
2018-07-02T05:09:03.009Z,1020.62
2018-07-02T05:10:11.865Z,1020.66
2018-07-02T05:11:20.728Z,1020.64
2018-07-02T05:12:29.586Z,1020.66
2018-07-02T05:13:38.445Z,1020.7
2018-07-02T05:14:47.305Z,1020.68
2018-07-02T05:15:56.167Z,1020.7
2018-07-02T05:17:05.344Z,1020.71
2018-07-02T05:18:14.456Z,1020.68
2018-07-02T05:19:23.316Z,1020.71
2018-07-02T05:20:32.473Z,1020.7
2018-07-02T05:21:41.613Z,1020.66
2018-07-02T05:22:50.516Z,1020.71
2018-07-02T05:23:59.376Z,1020.7
2018-07-02T05:25:08.514Z,1020.75
2018-07-02T05:26:17.545Z,1020.77
2018-07-02T05:27:26.236Z,1020.77
2018-07-02T05:28:35.373Z,1020.8
2018-07-02T05:29:44.237Z,1020.82
2018-07-02T05:30:53.377Z,1020.81
2018-07-02T05:32:02.277Z,1020.76
2018-07-02T05:33:11.404Z,1020.78
2018-07-02T05:34:20.457Z,1020.78
2018-07-02T05:35:29.289Z,1020.81
2018-07-02T05:36:38.275Z,1020.78
2018-07-02T05:37:47.199Z,1020.87
2018-07-02T05:38:56.250Z,1020.88
2018-07-02T05:40:05.447Z,1020.87
2018-07-02T05:41:14.621Z,1020.89
2018-07-02T05:42:23.482Z,1020.91
2018-07-02T05:43:32.360Z,1020.95
2018-07-02T05:44:41.320Z,1020.91
2018-07-02T05:45:50.182Z,1020.95
2018-07-02T05:47:03.040Z,1020.88
2018-07-02T05:48:16.928Z,1020.84
2018-07-02T05:49:35.704Z,1020.85
2018-07-02T05:50:53.632Z,1020.89
2018-07-02T05:52:08.064Z,1020.9
2018-07-02T05:53:20.920Z,1020.87
2018-07-02T05:54:33.872Z,1020.92
2018-07-02T05:55:48.679Z,1020.9
2018-07-02T05:57:09.679Z,1020.94
2018-07-02T05:58:25.925Z,1020.93
2018-07-02T05:59:42.899Z,1020.95
2018-07-02T06:01:00.016Z,1020.95
2018-07-02T06:02:11.677Z,1020.92
2018-07-02T06:03:20.812Z,1020.92
2018-07-02T06:04:29.826Z,1020.94
2018-07-02T06:05:39.527Z,1020.89
2018-07-02T06:06:48.542Z,1020.87
2018-07-02T06:07:57.614Z,1020.87
2018-07-02T06:09:06.587Z,1020.86
2018-07-02T06:10:16.387Z,1020.85
2018-07-02T06:11:26.129Z,1020.87
2018-07-02T06:12:34.990Z,1020.86
2018-07-02T06:13:44.291Z,1020.85
2018-07-02T06:14:53.155Z,1020.88
2018-07-02T06:16:02.017Z,1020.87
2018-07-02T06:17:10.929Z,1020.81
2018-07-02T06:18:20.068Z,1020.88
2018-07-02T06:19:28.932Z,1020.88
2018-07-02T06:20:37.796Z,1020.88
2018-07-02T06:21:46.668Z,1020.9
2018-07-02T06:22:55.904Z,1020.89
2018-07-02T06:24:04.763Z,1020.89
2018-07-02T06:25:13.624Z,1020.87
2018-07-02T06:26:22.766Z,1020.88
2018-07-02T06:27:31.901Z,1020.88
2018-07-02T06:28:40.910Z,1020.92
2018-07-02T06:29:50.058Z,1020.9
2018-07-02T06:30:59.209Z,1020.94
2018-07-02T06:32:08.096Z,1020.85
2018-07-02T06:33:16.935Z,1020.86
2018-07-02T06:34:26.017Z,1020.86
2018-07-02T06:35:34.883Z,1020.83
2018-07-02T06:36:44.022Z,1020.88
2018-07-02T06:37:52.887Z,1020.87
2018-07-02T06:39:02.028Z,1020.91
2018-07-02T06:40:11.092Z,1020.86
2018-07-02T06:41:19.952Z,1020.86
2018-07-02T06:42:28.815Z,1020.88
2018-07-02T06:43:37.956Z,1020.83
2018-07-02T06:44:46.819Z,1020.84
2018-07-02T06:45:55.857Z,1020.81
2018-07-02T06:47:05.098Z,1020.8
2018-07-02T06:48:13.963Z,1020.8
2018-07-02T06:49:22.828Z,1020.77
2018-07-02T06:50:31.688Z,1020.8
2018-07-02T06:51:40.752Z,1020.84
2018-07-02T06:52:50.430Z,1020.81
2018-07-02T06:53:59.298Z,1020.84
2018-07-02T06:55:08.169Z,1020.87
2018-07-02T06:56:17.309Z,1020.81
2018-07-02T06:57:26.330Z,1020.83
2018-07-02T06:58:35.197Z,1020.79
2018-07-02T06:59:44.745Z,1020.76
2018-07-02T07:00:53.884Z,1020.71
2018-07-02T07:02:02.746Z,1020.75
2018-07-02T07:03:11.707Z,1020.73
2018-07-02T07:04:20.573Z,1020.72
2018-07-02T07:05:29.437Z,1020.71
2018-07-02T07:06:38.302Z,1020.7
2018-07-02T07:07:47.163Z,1020.72
2018-07-02T07:08:56.125Z,1020.75
2018-07-02T07:10:04.990Z,1020.69
2018-07-02T07:11:13.851Z,1020.7
2018-07-02T07:12:23.036Z,1020.74
2018-07-02T07:13:31.898Z,1020.68
2018-07-02T07:14:41.013Z,1020.64
2018-07-02T07:15:49.882Z,1020.68
2018-07-02T07:16:59.020Z,1020.64
2018-07-02T07:18:07.883Z,1020.63
2018-07-02T07:19:16.747Z,1020.64
2018-07-02T07:20:26.147Z,1020.59
2018-07-02T07:21:35.003Z,1020.64
2018-07-02T07:22:44.153Z,1020.63
2018-07-02T07:23:53.016Z,1020.64
2018-07-02T07:25:01.881Z,1020.61
2018-07-02T07:26:10.845Z,1020.65
2018-07-02T07:27:19.985Z,1020.66
2018-07-02T07:28:29.160Z,1020.64
2018-07-02T07:29:38.021Z,1020.66
2018-07-02T07:30:46.886Z,1020.66
2018-07-02T07:31:55.846Z,1020.67
2018-07-02T07:33:04.711Z,1020.66
2018-07-02T07:34:13.575Z,1020.68
2018-07-02T07:35:22.438Z,1020.68
2018-07-02T07:36:31.303Z,1020.67
2018-07-02T07:37:40.315Z,1020.7
2018-07-02T07:38:49.730Z,1020.69
2018-07-02T07:39:58.596Z,1020.69
2018-07-02T07:41:07.737Z,1020.71
2018-07-02T07:42:16.599Z,1020.67
2018-07-02T07:43:25.511Z,1020.69
2018-07-02T07:44:34.385Z,1020.69
2018-07-02T07:45:43.570Z,1020.65
2018-07-02T07:46:52.709Z,1020.69
2018-07-02T07:48:01.574Z,1020.73
2018-07-02T07:49:10.542Z,1020.72
2018-07-02T07:50:19.406Z,1020.76
2018-07-02T07:51:28.287Z,1020.75
2018-07-02T07:52:37.152Z,1020.77
2018-07-02T07:53:46.013Z,1020.78
2018-07-02T07:54:54.926Z,1020.76
2018-07-02T07:56:04.063Z,1020.78
2018-07-02T07:57:13.208Z,1020.76
2018-07-02T07:58:22.351Z,1020.78
2018-07-02T07:59:31.553Z,1020.77
2018-07-02T08:00:41.081Z,1020.75
2018-07-02T08:01:49.942Z,1020.79
2018-07-02T08:02:59.087Z,1020.74
2018-07-02T08:04:08.524Z,1020.74
2018-07-02T08:05:17.719Z,1020.76
2018-07-02T08:06:26.676Z,1020.75
2018-07-02T08:07:35.872Z,1020.74
2018-07-02T08:08:44.737Z,1020.73
2018-07-02T08:09:53.616Z,1020.73
2018-07-02T08:11:02.758Z,1020.74
2018-07-02T08:12:11.791Z,1020.77
2018-07-02T08:13:20.983Z,1020.77
2018-07-02T08:14:29.919Z,1020.71
2018-07-02T08:15:38.787Z,1020.72
2018-07-02T08:16:47.815Z,1020.73
2018-07-02T08:17:57.429Z,1020.72
2018-07-02T08:19:06.677Z,1020.72
2018-07-02T08:20:15.499Z,1020.76
2018-07-02T08:21:24.364Z,1020.76
2018-07-02T08:22:33.229Z,1020.78
2018-07-02T08:23:42.683Z,1020.76
2018-07-02T08:24:51.768Z,1020.8
2018-07-02T08:26:00.632Z,1020.78
2018-07-02T08:27:09.495Z,1020.78
2018-07-02T08:28:18.362Z,1020.79
2018-07-02T08:29:27.282Z,1020.78
2018-07-02T08:30:36.423Z,1020.79
2018-07-02T08:31:45.576Z,1020.73
2018-07-02T08:32:54.470Z,1020.76
2018-07-02T08:34:04.124Z,1020.71
2018-07-02T08:35:13.415Z,1020.72
2018-07-02T08:36:22.561Z,1020.71
2018-07-02T08:37:31.424Z,1020.7
2018-07-02T08:38:40.342Z,1020.75
2018-07-02T08:39:49.484Z,1020.73
2018-07-02T08:40:58.599Z,1020.73
2018-07-02T08:42:07.740Z,1020.71
2018-07-02T08:43:16.622Z,1020.7
2018-07-02T08:44:25.783Z,1020.71
2018-07-02T08:45:34.691Z,1020.66
2018-07-02T08:46:43.630Z,1020.63
2018-07-02T08:47:52.912Z,1020.66
2018-07-02T08:49:01.794Z,1020.66
2018-07-02T08:50:10.739Z,1020.71
2018-07-02T08:51:19.615Z,1020.67
2018-07-02T08:52:28.536Z,1020.57
2018-07-02T08:53:37.682Z,1020.59
2018-07-02T08:54:46.546Z,1020.6
2018-07-02T08:55:55.409Z,1020.62
2018-07-02T08:57:04.274Z,1020.59
2018-07-02T08:58:13.637Z,1020.6
2018-07-02T08:59:22.443Z,1020.57
2018-07-02T09:00:31.315Z,1020.61
2018-07-02T09:01:40.736Z,1020.58
2018-07-02T09:02:49.883Z,1020.57
2018-07-02T09:03:59.375Z,1020.57
2018-07-02T09:05:08.240Z,1020.56
2018-07-02T09:06:17.383Z,1020.53
2018-07-02T09:07:26.248Z,1020.53
2018-07-02T09:08:35.387Z,1020.55
2018-07-02T09:09:44.680Z,1020.53
2018-07-02T09:10:53.545Z,1020.56
2018-07-02T09:12:02.418Z,1020.61
2018-07-02T09:13:11.286Z,1020.58
2018-07-02T09:14:20.149Z,1020.56
2018-07-02T09:15:29.367Z,1020.51
2018-07-02T09:16:38.518Z,1020.54
2018-07-02T09:17:47.398Z,1020.55
2018-07-02T09:18:56.519Z,1020.54
2018-07-02T09:20:05.385Z,1020.55
2018-07-02T09:21:14.349Z,1020.54
2018-07-02T09:22:23.214Z,1020.47
2018-07-02T09:23:32.352Z,1020.47
2018-07-02T09:24:41.219Z,1020.44
2018-07-02T09:25:50.373Z,1020.43
2018-07-02T09:26:59.288Z,1020.41
2018-07-02T09:28:08.855Z,1020.39
2018-07-02T09:29:17.996Z,1020.41
2018-07-02T09:30:26.857Z,1020.36
2018-07-02T09:31:35.726Z,1020.42
2018-07-02T09:32:44.592Z,1020.46
2018-07-02T09:33:53.456Z,1020.42
2018-07-02T09:35:02.885Z,1020.38
2018-07-02T09:36:12.032Z,1020.42
2018-07-02T09:37:20.903Z,1020.35
2018-07-02T09:38:29.866Z,1020.38
2018-07-02T09:39:38.734Z,1020.31
2018-07-02T09:40:47.875Z,1020.34
2018-07-02T09:41:57.015Z,1020.28
2018-07-02T09:43:05.886Z,1020.27
2018-07-02T09:44:15.038Z,1020.27
2018-07-02T09:45:24.184Z,1020.29
2018-07-02T09:46:33.327Z,1020.3
2018-07-02T09:47:42.477Z,1020.32
2018-07-02T09:48:51.343Z,1020.31
2018-07-02T09:50:00.483Z,1020.3
2018-07-02T09:51:09.624Z,1020.3
2018-07-02T09:52:18.491Z,1020.32
2018-07-02T09:53:27.377Z,1020.26
2018-07-02T09:54:36.220Z,1020.29
2018-07-02T09:55:45.086Z,1020.24
2018-07-02T09:56:53.961Z,1020.22
2018-07-02T09:58:02.825Z,1020.25
2018-07-02T09:59:11.690Z,1020.18
2018-07-02T10:00:20.838Z,1020.17
2018-07-02T10:01:30.042Z,1020.15
2018-07-02T10:02:38.911Z,1020.23
2018-07-02T10:03:47.776Z,1020.16
2018-07-02T10:04:56.644Z,1020.23
2018-07-02T10:06:05.508Z,1020.25
2018-07-02T10:07:14.378Z,1020.2
2018-07-02T10:08:23.262Z,1020.14
2018-07-02T10:09:32.330Z,1020.19
2018-07-02T10:10:41.205Z,1020.19
2018-07-02T10:11:50.062Z,1020.11
2018-07-02T10:12:59.208Z,1020.21
2018-07-02T10:14:08.076Z,1020.19
2018-07-02T10:15:17.091Z,1020.18
2018-07-02T10:16:25.956Z,1020.17
2018-07-02T10:17:34.881Z,1020.19
2018-07-02T10:18:43.876Z,1020.22
2018-07-02T10:19:52.750Z,1020.2
2018-07-02T10:21:02.574Z,1020.18
2018-07-02T10:22:11.678Z,1020.23
2018-07-02T10:23:20.542Z,1020.25
2018-07-02T10:24:29.408Z,1020.18
2018-07-02T10:25:38.555Z,1020.24
2018-07-02T10:26:47.669Z,1020.22
2018-07-02T10:27:56.536Z,1020.21
2018-07-02T10:29:05.431Z,1020.23
2018-07-02T10:30:14.270Z,1020.22
2018-07-02T10:31:23.266Z,1020.24
2018-07-02T10:32:32.398Z,1020.23
2018-07-02T10:33:41.543Z,1020.17
2018-07-02T10:34:50.515Z,1020.17
2018-07-02T10:36:00.084Z,1020.12
2018-07-02T10:37:09.228Z,1020.15
2018-07-02T10:38:18.292Z,1020.08
2018-07-02T10:39:27.159Z,1020.06
2018-07-02T10:40:36.302Z,1020.05
2018-07-02T10:41:45.171Z,1020.2
2018-07-02T10:42:54.316Z,1020.09
2018-07-02T10:44:03.530Z,1020.09
2018-07-02T10:45:12.402Z,1020.13
2018-07-02T10:46:21.266Z,1020.14
2018-07-02T10:47:30.133Z,1020.13
2018-07-02T10:48:39.049Z,1020.05
2018-07-02T10:49:48.166Z,1020.09
2018-07-02T10:50:57.030Z,1019.99
2018-07-02T10:52:05.895Z,1020.01
2018-07-02T10:53:15.041Z,1019.96
2018-07-02T10:54:23.907Z,1019.98
2018-07-02T10:55:33.263Z,1020
2018-07-02T10:56:42.765Z,1019.97
2018-07-02T10:57:51.743Z,1020
2018-07-02T10:59:00.615Z,1019.96
2018-07-02T11:00:09.480Z,1020.01
2018-07-02T11:01:18.752Z,1019.96
2018-07-02T11:02:27.958Z,1019.99
2018-07-02T11:03:36.876Z,1019.94
2018-07-02T11:04:45.742Z,1020.01
2018-07-02T11:05:54.612Z,1020
2018-07-02T11:07:03.831Z,1020.04
2018-07-02T11:08:12.973Z,1020.05
2018-07-02T11:09:22.117Z,1020.03
2018-07-02T11:10:30.982Z,1019.89
2018-07-02T11:11:39.846Z,1020
2018-07-02T11:12:48.763Z,1019.93
2018-07-02T11:13:58.023Z,1019.95
2018-07-02T11:15:06.888Z,1019.97
2018-07-02T11:16:15.754Z,1019.92
2018-07-02T11:17:24.618Z,1019.9
2018-07-02T11:18:33.635Z,1019.88
2018-07-02T11:19:42.776Z,1019.9
2018-07-02T11:20:51.642Z,1019.88
2018-07-02T11:22:00.506Z,1019.91
2018-07-02T11:23:09.648Z,1019.87
2018-07-02T11:24:18.924Z,1019.89
2018-07-02T11:25:28.839Z,1019.89
2018-07-02T11:26:37.704Z,1019.88
2018-07-02T11:27:46.570Z,1019.87
2018-07-02T11:28:55.442Z,1019.88
2018-07-02T11:30:04.361Z,1019.82
2018-07-02T11:31:13.543Z,1019.89
2018-07-02T11:32:22.685Z,1019.83
2018-07-02T11:33:31.553Z,1019.77
2018-07-02T11:34:40.417Z,1019.77
2018-07-02T11:35:49.333Z,1019.72
2018-07-02T11:36:58.205Z,1019.65
2018-07-02T11:38:07.073Z,1019.71
2018-07-02T11:39:15.938Z,1019.66
2018-07-02T11:40:24.805Z,1019.69
2018-07-02T11:41:33.772Z,1019.73
2018-07-02T11:42:42.637Z,1019.71
2018-07-02T11:43:51.500Z,1019.71
2018-07-02T11:45:00.368Z,1019.64
2018-07-02T11:46:09.510Z,1019.69
2018-07-02T11:47:18.474Z,1019.64
2018-07-02T11:48:27.618Z,1019.69
2018-07-02T11:49:36.521Z,1019.69
2018-07-02T11:50:45.359Z,1019.66
2018-07-02T11:51:54.236Z,1019.71
2018-07-02T11:53:03.149Z,1019.65
2018-07-02T11:54:12.021Z,1019.73
2018-07-02T11:55:20.885Z,1019.76
2018-07-02T11:56:29.755Z,1019.78
2018-07-02T11:57:38.624Z,1019.81
2018-07-02T11:58:47.736Z,1019.84
2018-07-02T11:59:56.611Z,1019.76
2018-07-02T12:01:05.752Z,1019.7
2018-07-02T12:02:14.622Z,1019.73
2018-07-02T12:03:23.489Z,1019.76
2018-07-02T12:04:32.459Z,1019.71
2018-07-02T12:05:41.330Z,1019.68
2018-07-02T12:06:50.477Z,1019.73
2018-07-02T12:07:59.346Z,1019.68
2018-07-02T12:09:08.216Z,1019.66
2018-07-02T12:10:17.087Z,1019.67
2018-07-02T12:11:25.957Z,1019.65
2018-07-02T12:12:34.827Z,1019.67
2018-07-02T12:13:43.700Z,1019.62
2018-07-02T12:14:52.576Z,1019.6
2018-07-02T12:16:02.081Z,1019.67
2018-07-02T12:17:10.957Z,1019.61
2018-07-02T12:18:19.831Z,1019.65
2018-07-02T12:19:29.001Z,1019.59
2018-07-02T12:20:38.221Z,1019.62
2018-07-02T12:21:47.626Z,1019.68
2018-07-02T12:22:56.499Z,1019.66
2018-07-02T12:24:05.653Z,1019.68
2018-07-02T12:25:14.527Z,1019.62
2018-07-02T12:26:23.403Z,1019.7
2018-07-02T12:27:32.829Z,1019.72
2018-07-02T12:28:41.701Z,1019.84
2018-07-02T12:29:50.628Z,1019.8
2018-07-02T12:30:59.505Z,1019.81
2018-07-02T12:32:08.377Z,1019.82
2018-07-02T12:33:17.532Z,1019.86
2018-07-02T12:34:26.692Z,1019.87
2018-07-02T12:35:36.131Z,1019.82
2018-07-02T12:36:45.010Z,1019.75
2018-07-02T12:37:54.163Z,1019.82
2018-07-02T12:39:03.373Z,1019.89
2018-07-02T12:40:12.531Z,1019.94
2018-07-02T12:41:21.408Z,1019.95
2018-07-02T12:42:30.287Z,1019.94
2018-07-02T12:43:39.443Z,1019.86
2018-07-02T12:44:48.471Z,1019.93
2018-07-02T12:45:57.347Z,1019.95
2018-07-02T12:47:06.228Z,1019.88
2018-07-02T12:48:15.383Z,1019.86
2018-07-02T12:49:24.267Z,1019.82
2018-07-02T12:50:33.566Z,1019.8
2018-07-02T12:51:42.455Z,1019.8
2018-07-02T12:52:51.335Z,1019.8
2018-07-02T12:54:00.227Z,1019.84
2018-07-02T12:55:09.538Z,1019.76
2018-07-02T12:56:18.697Z,1019.75
2018-07-02T12:57:27.575Z,1019.83
2018-07-02T12:58:36.739Z,1019.81
2018-07-02T12:59:45.665Z,1019.81
2018-07-02T13:00:54.823Z,1019.8
2018-07-02T13:02:03.954Z,1019.79
2018-07-02T13:03:12.833Z,1019.78
2018-07-02T13:04:21.840Z,1019.71
2018-07-02T13:05:30.596Z,1019.71
2018-07-02T13:06:39.476Z,1019.68
2018-07-02T13:07:48.507Z,1019.65
2018-07-02T13:08:57.390Z,1019.64
2018-07-02T13:10:06.271Z,1019.59
2018-07-02T13:11:15.431Z,1019.6
2018-07-02T13:12:24.310Z,1019.6
2018-07-02T13:13:33.846Z,1019.58
2018-07-02T13:14:43.100Z,1019.51
2018-07-02T13:15:52.278Z,1019.52
2018-07-02T13:17:01.163Z,1019.49
2018-07-02T13:18:10.051Z,1019.49
2018-07-02T13:19:19.537Z,1019.51
2018-07-02T13:20:28.416Z,1019.48
2018-07-02T13:21:37.593Z,1019.57
2018-07-02T13:22:46.472Z,1019.57
2018-07-02T13:23:55.360Z,1019.52
2018-07-02T13:25:04.892Z,1019.53
2018-07-02T13:26:13.772Z,1019.49
2018-07-02T13:27:23.218Z,1019.43
2018-07-02T13:28:32.090Z,1019.46
2018-07-02T13:29:40.973Z,1019.52
2018-07-02T13:30:49.956Z,1019.52
2018-07-02T13:31:58.836Z,1019.49
2018-07-02T13:33:08.036Z,1019.55
2018-07-02T13:34:17.023Z,1019.46
2018-07-02T13:35:25.909Z,1019.5
2018-07-02T13:36:35.149Z,1019.43
2018-07-02T13:37:44.117Z,1019.33
2018-07-02T13:38:53.097Z,1019.36
2018-07-02T13:40:01.984Z,1019.38
2018-07-02T13:41:11.144Z,1019.35
2018-07-02T13:42:20.173Z,1019.34
2018-07-02T13:43:29.512Z,1019.35
2018-07-02T13:44:38.669Z,1019.35
2018-07-02T13:45:47.643Z,1019.32
2018-07-02T13:46:56.803Z,1019.32
2018-07-02T13:48:05.784Z,1019.23
2018-07-02T13:49:14.944Z,1019.33
2018-07-02T13:50:23.826Z,1019.27
2018-07-02T13:51:32.723Z,1019.27
2018-07-02T13:52:41.608Z,1019.26
2018-07-02T13:53:50.643Z,1019.3
2018-07-02T13:54:59.801Z,1019.38
2018-07-02T13:56:09.001Z,1019.32
2018-07-02T13:57:17.884Z,1019.34
2018-07-02T13:58:26.767Z,1019.28
2018-07-02T13:59:36.077Z,1019.3